createdAt,value
2018-04-22T00:01:01.581Z,33.57
2018-04-22T00:03:32.084Z,33.48
2018-04-22T00:06:47.718Z,33.41
2018-04-22T00:09:20.738Z,33.35
2018-04-22T00:11:52.614Z,33.30
2018-04-22T00:14:23.493Z,33.27
2018-04-22T00:16:55.304Z,33.25
2018-04-22T00:19:29.565Z,33.25
2018-04-22T00:22:36.444Z,33.21
2018-04-22T00:25:08.526Z,33.20
2018-04-22T00:27:44.449Z,33.16
2018-04-22T00:30:16.277Z,33.09
2018-04-22T00:32:48.738Z,32.92
2018-04-22T00:35:21.911Z,32.80
2018-04-22T00:37:56.331Z,32.83
2018-04-22T00:40:28.281Z,32.80
2018-04-22T00:43:00.254Z,32.77
2018-04-22T00:45:32.275Z,32.69
2018-04-22T00:48:04.264Z,32.61
2018-04-22T00:50:36.484Z,32.53
2018-04-22T00:53:08.483Z,32.41
2018-04-22T00:55:40.529Z,32.29
2018-04-22T00:58:12.489Z,32.22
2018-04-22T01:00:45.972Z,32.24
2018-04-22T01:03:18.492Z,32.24
2018-04-22T01:05:50.491Z,32.21
2018-04-22T01:08:22.308Z,32.13
2018-04-22T01:10:56.348Z,32.10
2018-04-22T01:20:02.673Z,31.68
2018-04-22T01:22:36.578Z,31.68
2018-04-22T01:25:07.078Z,31.68
2018-04-22T01:27:40.409Z,31.65
2018-04-22T01:30:13.607Z,31.62
2018-04-22T01:38:17.269Z,31.42
2018-04-22T01:42:41.606Z,31.29
2018-04-22T01:45:13.526Z,31.29
2018-04-22T01:47:45.292Z,31.28
2018-04-22T01:50:17.776Z,31.24
2018-04-22T01:52:51.501Z,31.18
2018-04-22T01:55:24.747Z,31.11
2018-04-22T01:57:56.603Z,31.04
2018-04-22T02:00:27.489Z,30.95
2018-04-22T02:02:59.281Z,30.85
2018-04-22T02:05:31.238Z,30.77
2018-04-22T02:08:03.257Z,30.74
2018-04-22T02:10:35.217Z,30.73
2018-04-22T02:13:34.705Z,30.66
2018-04-22T02:16:06.598Z,30.62
2018-04-22T02:18:39.692Z,30.58
2018-04-22T02:21:11.902Z,30.51
2018-04-22T02:23:44.682Z,30.41
2018-04-22T02:26:16.572Z,30.31
2018-04-22T02:28:47.085Z,30.23
2018-04-22T02:31:18.923Z,30.20
2018-04-22T02:33:50.584Z,30.16
2018-04-22T02:36:21.382Z,30.10
2018-04-22T02:38:53.258Z,30.07
2018-04-22T02:43:10.584Z,30.00
2018-04-22T02:45:41.340Z,29.87
2018-04-22T02:48:13.262Z,29.78
2018-04-22T02:50:45.261Z,29.73
2018-04-22T02:53:17.432Z,29.69
2018-04-22T02:55:49.280Z,29.63
2018-04-22T02:58:21.238Z,29.56
2018-04-22T03:00:53.424Z,29.53
2018-04-22T03:03:25.507Z,29.48
2018-04-22T03:05:57.280Z,29.40
2018-04-22T03:08:29.285Z,29.30
2018-04-22T03:11:02.769Z,29.20
2018-04-22T03:13:34.574Z,29.14
2018-04-22T03:16:06.692Z,29.13
2018-04-22T03:18:40.902Z,29.11
2018-04-22T03:21:14.711Z,29.05
2018-04-22T03:23:46.657Z,28.99
2018-04-22T03:26:20.428Z,28.93
2018-04-22T03:28:52.314Z,28.86
2018-04-22T03:31:27.477Z,28.75
2018-04-22T03:34:00.469Z,28.66
2018-04-22T03:36:35.518Z,28.64
2018-04-22T03:39:08.236Z,28.64
2018-04-22T03:44:20.482Z,28.54
2018-04-22T03:46:52.291Z,28.52
2018-04-22T03:49:25.501Z,28.46
2018-04-22T03:51:58.845Z,28.43
2018-04-22T03:54:30.614Z,28.31
2018-04-22T03:57:01.506Z,28.25
2018-04-22T03:59:33.494Z,28.26
2018-04-22T04:02:05.492Z,28.25
2018-04-22T04:04:37.493Z,28.21
2018-04-22T04:14:31.763Z,27.96
2018-04-22T04:17:03.596Z,27.95
2018-04-22T04:19:40.122Z,27.90
2018-04-22T04:22:23.495Z,27.90
2018-04-22T04:25:07.498Z,27.79
2018-04-22T04:27:51.498Z,27.76
2018-04-22T04:30:23.939Z,27.74
2018-04-22T04:32:55.589Z,27.70
2018-04-22T04:35:26.502Z,27.61
2018-04-22T04:37:58.506Z,27.56
2018-04-22T04:40:32.524Z,27.51
2018-04-22T04:43:05.292Z,27.52
2018-04-22T04:45:37.512Z,27.52
2018-04-22T04:48:09.285Z,27.52
2018-04-22T04:50:42.522Z,27.50
2018-04-22T04:53:15.509Z,27.49
2018-04-22T04:55:47.504Z,27.49
2018-04-22T04:58:19.284Z,27.47
2018-04-22T05:00:52.549Z,27.39
2018-04-22T05:03:24.514Z,27.33
2018-04-22T05:05:56.509Z,27.28
2018-04-22T05:08:28.511Z,27.26
2018-04-22T05:11:45.643Z,27.25
2018-04-22T05:14:17.557Z,27.25
2018-04-22T05:16:49.422Z,27.23
2018-04-22T05:19:21.264Z,27.20
2018-04-22T05:23:12.255Z,27.13
2018-04-22T05:25:45.549Z,27.07
2018-04-22T05:28:18.621Z,27.04
2018-04-22T05:30:51.725Z,27.05
2018-04-22T05:33:34.792Z,27.02
2018-04-22T05:37:28.584Z,26.95
2018-04-22T05:39:59.392Z,26.94
2018-04-22T05:42:31.271Z,26.94
2018-04-22T05:45:03.247Z,26.91
2018-04-22T05:48:48.528Z,26.79
2018-04-22T05:51:22.556Z,26.79
2018-04-22T05:53:54.721Z,26.82
2018-04-22T05:56:28.527Z,26.83
2018-04-22T05:59:00.511Z,26.83
2018-04-22T06:01:33.918Z,26.80
2018-04-22T06:04:06.242Z,26.74
2018-04-22T06:06:39.734Z,26.71
2018-04-22T06:09:12.721Z,26.64
2018-04-22T06:11:44.593Z,26.59
2018-04-22T06:14:16.565Z,26.58
2018-04-22T06:16:49.779Z,26.58
2018-04-22T06:19:21.575Z,26.59
2018-04-22T06:23:17.475Z,26.54
2018-04-22T06:25:49.245Z,26.55
2018-04-22T06:28:21.269Z,26.52
2018-04-22T06:30:56.617Z,26.46
2018-04-22T06:33:30.018Z,26.39
2018-04-22T06:36:02.666Z,26.32
2018-04-22T06:38:37.549Z,26.30
2018-04-22T06:41:09.283Z,26.27
2018-04-22T06:43:41.285Z,26.27
2018-04-22T06:46:14.663Z,26.25
2018-04-22T06:48:45.483Z,26.19
2018-04-22T06:51:17.279Z,26.16
2018-04-22T06:53:49.567Z,26.13
2018-04-22T06:56:20.093Z,26.10
2018-04-22T06:58:52.211Z,26.07
2018-04-22T07:01:25.746Z,26.04
2018-04-22T07:03:57.932Z,26.06
2018-04-22T07:06:29.574Z,26.04
2018-04-22T07:11:26.268Z,25.95
2018-04-22T07:13:58.249Z,25.91
2018-04-22T07:16:30.262Z,25.91
2018-04-22T07:19:03.490Z,25.88
2018-04-22T07:22:32.699Z,25.81
2018-04-22T07:25:05.812Z,25.79
2018-04-22T07:27:38.509Z,25.75
2018-04-22T07:30:11.263Z,25.71
2018-04-22T07:32:45.507Z,25.69
2018-04-22T07:38:58.244Z,25.58
2018-04-22T07:45:15.633Z,25.53
2018-04-22T07:47:48.633Z,25.52
2018-04-22T07:50:22.534Z,25.50
2018-04-22T07:52:53.386Z,25.49
2018-04-22T07:55:25.360Z,25.49
2018-04-22T07:57:58.594Z,25.44
2018-04-22T08:00:30.963Z,25.44
2018-04-22T08:03:03.504Z,25.40
2018-04-22T08:05:36.507Z,25.33
2018-04-22T08:08:08.500Z,25.25
2018-04-22T08:10:39.091Z,25.22
2018-04-22T08:13:11.236Z,25.21
2018-04-22T08:15:43.860Z,25.16
2018-04-22T08:18:15.575Z,25.18
2018-04-22T08:20:48.926Z,25.19
2018-04-22T08:24:15.483Z,25.17
2018-04-22T08:26:48.054Z,25.18
2018-04-22T08:29:20.751Z,25.16
2018-04-22T08:31:52.571Z,25.18
2018-04-22T08:34:24.233Z,25.17
2018-04-22T08:36:58.222Z,25.11
2018-04-22T08:39:31.598Z,25.09
2018-04-22T08:42:03.499Z,25.09
2018-04-22T08:44:36.710Z,25.07
2018-04-22T08:49:58.050Z,24.91
2018-04-22T08:52:35.046Z,24.97
2018-04-22T08:55:07.255Z,24.99
2018-04-22T08:57:39.233Z,24.96
2018-04-22T09:00:11.242Z,24.93
2018-04-22T09:03:16.788Z,24.88
2018-04-22T09:05:48.603Z,24.93
2018-04-22T09:08:19.481Z,24.87
2018-04-22T09:10:53.283Z,24.83
2018-04-22T09:13:25.253Z,24.81
2018-04-22T09:15:57.259Z,24.78
2018-04-22T09:18:29.725Z,24.72
2018-04-22T09:21:01.602Z,24.67
2018-04-22T09:23:32.507Z,24.66
2018-04-22T09:26:04.517Z,24.64
2018-04-22T09:28:36.503Z,24.60
2018-04-22T09:31:08.713Z,24.56
2018-04-22T09:33:40.624Z,24.54
2018-04-22T09:36:14.751Z,24.52
2018-04-22T09:38:47.764Z,24.51
2018-04-22T09:41:20.924Z,24.52
2018-04-22T09:43:53.045Z,24.50
2018-04-22T09:46:26.589Z,24.48
2018-04-22T09:48:59.401Z,24.47
2018-04-22T09:51:31.523Z,24.45
2018-04-22T09:54:02.380Z,24.42
2018-04-22T09:56:34.537Z,24.35
2018-04-22T09:59:06.618Z,24.37
2018-04-22T10:01:39.534Z,24.33
2018-04-22T10:05:45.224Z,24.24
2018-04-22T10:08:17.275Z,24.18
2018-04-22T10:11:42.723Z,24.06
2018-04-22T10:14:15.718Z,24.09
2018-04-22T10:16:47.580Z,24.13
2018-04-22T10:19:20.506Z,24.13
2018-04-22T10:21:53.072Z,24.10
2018-04-22T10:24:26.607Z,24.08
2018-04-22T10:26:57.099Z,24.05
2018-04-22T10:29:29.544Z,24.02
2018-04-22T10:32:00.389Z,23.97
2018-04-22T10:35:36.575Z,23.92
2018-04-22T10:38:07.308Z,23.95
2018-04-22T10:40:38.383Z,23.95
2018-04-22T10:43:10.491Z,23.94
2018-04-22T10:45:42.264Z,23.92
2018-04-22T10:48:15.724Z,23.89
2018-04-22T10:50:47.586Z,23.87
2018-04-22T10:53:18.105Z,23.86
2018-04-22T10:55:50.240Z,23.83
2018-04-22T10:58:23.493Z,23.79
2018-04-22T11:00:55.270Z,23.71
2018-04-22T11:03:27.286Z,23.59
2018-04-22T11:08:21.578Z,23.52
2018-04-22T11:10:53.351Z,23.53
2018-04-22T11:13:25.535Z,23.52
2018-04-22T11:15:58.539Z,23.51
2018-04-22T11:18:32.616Z,23.44
2018-04-22T11:21:04.664Z,23.44
2018-04-22T11:23:36.546Z,23.44
2018-04-22T11:26:09.385Z,23.44
2018-04-22T11:28:41.539Z,23.44
2018-04-22T11:31:13.541Z,23.34
2018-04-22T11:33:45.639Z,23.21
2018-04-22T11:36:16.353Z,23.15
2018-04-22T11:38:49.529Z,23.18
2018-04-22T11:41:21.288Z,23.19
2018-04-22T11:43:53.252Z,23.14
2018-04-22T11:46:25.256Z,23.07
2018-04-22T11:48:57.536Z,23.10
2018-04-22T11:51:28.227Z,23.10
2018-04-22T11:54:00.628Z,22.98
2018-04-22T11:56:33.827Z,22.90
2018-04-22T11:59:05.302Z,22.81
2018-04-22T12:01:37.635Z,22.74
2018-04-22T12:06:51.724Z,22.61
2018-04-22T12:09:22.366Z,22.69
2018-04-22T12:11:54.544Z,22.71
2018-04-22T12:14:27.901Z,22.74
2018-04-22T12:17:00.372Z,22.74
2018-04-22T12:19:32.536Z,22.72
2018-04-22T12:22:04.538Z,22.73
2018-04-22T12:24:35.332Z,22.72
2018-04-22T12:27:07.539Z,22.74
2018-04-22T12:30:40.645Z,22.73
2018-04-22T12:33:12.538Z,22.67
2018-04-22T12:35:43.113Z,22.73
2018-04-22T12:38:16.748Z,22.78
2018-04-22T12:40:48.646Z,22.79
2018-04-22T12:43:20.552Z,22.76
2018-04-22T12:45:52.548Z,22.71
2018-04-22T12:48:25.543Z,22.65
2018-04-22T12:50:57.740Z,22.60
2018-04-22T12:53:28.561Z,22.59
2018-04-22T12:56:00.542Z,22.64
2018-04-22T12:58:31.282Z,22.70
2018-04-22T13:01:03.305Z,22.73
2018-04-22T13:03:37.121Z,22.75
2018-04-22T13:06:09.538Z,22.78
2018-04-22T13:08:40.363Z,22.74
2018-04-22T13:11:12.541Z,22.61
2018-04-22T13:18:38.883Z,22.62
2018-04-22T13:21:12.594Z,22.58
2018-04-22T13:23:43.385Z,22.53
2018-04-22T13:26:17.332Z,22.42
2018-04-22T13:28:48.405Z,22.28
2018-04-22T13:31:20.070Z,22.19
2018-04-22T13:35:32.896Z,22.06
2018-04-22T13:38:05.550Z,21.97
2018-04-22T13:42:31.901Z,21.86
2018-04-22T13:45:04.246Z,21.77
2018-04-22T13:47:36.545Z,21.67
2018-04-22T13:50:07.371Z,21.62
2018-04-22T13:52:39.507Z,21.56
2018-04-22T13:55:11.508Z,21.51
2018-04-22T13:57:44.514Z,21.48
2018-04-22T14:00:17.530Z,21.46
2018-04-22T14:02:49.507Z,21.43
2018-04-22T14:05:23.861Z,21.36
2018-04-22T14:07:55.652Z,21.33
2018-04-22T14:10:27.542Z,21.32
2018-04-22T14:12:59.545Z,21.32
2018-04-22T14:15:33.337Z,21.31
2018-04-22T14:18:05.545Z,21.30
2018-04-22T14:20:37.600Z,21.29
2018-04-22T14:23:08.394Z,21.29
2018-04-22T14:25:40.524Z,21.26
2018-04-22T14:28:14.603Z,21.23
2018-04-22T14:33:04.273Z,21.24
2018-04-22T14:35:36.270Z,21.28
2018-04-22T14:38:09.576Z,21.28
2018-04-22T14:40:41.530Z,21.32
2018-04-22T14:43:14.581Z,21.37
2018-04-22T14:45:51.306Z,21.34
2018-04-22T14:48:24.665Z,21.36
2018-04-22T14:50:56.687Z,21.39
2018-04-22T14:56:13.586Z,21.39
2018-04-22T14:58:44.717Z,21.41
2018-04-22T15:01:16.592Z,21.43
2018-04-22T15:03:48.358Z,21.48
2018-04-22T15:06:20.241Z,21.49
2018-04-22T15:08:52.243Z,21.55
2018-04-22T15:11:24.233Z,21.55
2018-04-22T15:13:56.487Z,21.60
2018-04-22T15:16:29.580Z,21.64
2018-04-22T15:19:01.327Z,21.63
2018-04-22T15:23:33.651Z,21.64
2018-04-22T15:26:04.332Z,21.62
2018-04-22T15:28:36.230Z,21.63
2018-04-22T15:31:08.316Z,21.64
2018-04-22T15:33:40.335Z,21.65
2018-04-22T15:36:14.243Z,21.68
2018-04-22T15:38:47.559Z,21.72
2018-04-22T15:41:19.488Z,21.73
2018-04-22T15:43:52.578Z,21.73
2018-04-22T15:46:24.511Z,21.75
2018-04-22T15:48:57.485Z,21.77
2018-04-22T15:51:29.593Z,21.79
2018-04-22T15:54:01.504Z,21.89
2018-04-22T15:56:33.492Z,21.94
2018-04-22T15:59:05.495Z,21.95
2018-04-22T16:01:38.586Z,21.98
2018-04-22T16:04:10.503Z,22.03
2018-04-22T16:06:45.405Z,22.07
2018-04-22T16:09:17.490Z,22.13
2018-04-22T16:11:49.496Z,22.16
2018-04-22T16:14:22.510Z,22.21
2018-04-22T16:16:54.578Z,22.29
2018-04-22T16:19:25.106Z,22.35
2018-04-22T16:21:58.579Z,22.39
2018-04-22T16:24:30.097Z,22.45
2018-04-22T16:27:02.256Z,22.48
2018-04-22T16:29:34.255Z,22.52
2018-04-22T16:32:07.241Z,22.54
2018-04-22T16:34:39.272Z,22.56
2018-04-22T16:37:11.288Z,22.56
2018-04-22T16:39:43.251Z,22.59
2018-04-22T16:42:16.103Z,22.63
2018-04-22T16:44:48.233Z,22.68
2018-04-22T16:47:21.633Z,22.74
2018-04-22T16:49:53.497Z,22.78
2018-04-22T16:52:25.478Z,22.81
2018-04-22T16:54:57.494Z,22.86
2018-04-22T16:57:29.243Z,22.90
2018-04-22T17:00:01.210Z,22.96
2018-04-22T17:02:33.606Z,23.05
2018-04-22T17:05:05.470Z,23.14
2018-04-22T17:07:37.249Z,23.21
2018-04-22T17:10:09.233Z,23.32
2018-04-22T17:12:41.560Z,23.34
2018-04-22T17:15:13.415Z,23.35
2018-04-22T17:17:45.242Z,23.32
2018-04-22T17:20:19.622Z,23.33
2018-04-22T17:22:53.260Z,23.40
2018-04-22T17:25:25.228Z,23.45
2018-04-22T17:27:57.107Z,23.48
2018-04-22T17:30:30.274Z,23.51
2018-04-22T17:33:02.496Z,23.54
2018-04-22T17:35:34.292Z,23.57
2018-04-22T17:38:06.236Z,23.62
2018-04-22T17:40:38.572Z,23.64
2018-04-22T17:43:09.064Z,23.69
2018-04-22T17:45:40.612Z,23.74
2018-04-22T17:48:11.479Z,23.77
2018-04-22T17:52:36.789Z,23.83
2018-04-22T17:55:08.606Z,23.86
2018-04-22T17:57:39.481Z,23.89
2018-04-22T18:00:11.298Z,23.95
2018-04-22T18:02:43.258Z,24.01
2018-04-22T18:05:15.305Z,24.04
2018-04-22T18:07:47.233Z,24.09
2018-04-22T18:10:21.270Z,24.13
2018-04-22T18:12:54.753Z,24.18
2018-04-22T18:15:26.583Z,24.23
2018-04-22T18:17:57.062Z,24.30
2018-04-22T18:20:29.272Z,24.35
2018-04-22T18:23:01.493Z,24.39
2018-04-22T18:25:34.520Z,24.43
2018-04-22T18:28:07.372Z,24.49
2018-04-22T18:30:39.308Z,24.54
2018-04-22T18:33:11.520Z,24.60
2018-04-22T18:35:43.291Z,24.66
2018-04-22T18:38:15.252Z,24.73
2018-04-22T18:45:00.574Z,24.87
2018-04-22T18:47:31.502Z,24.98
2018-04-22T18:50:03.498Z,25.06
2018-04-22T18:52:35.288Z,25.12
2018-04-22T18:55:07.263Z,25.18
2018-04-22T18:57:40.705Z,25.22
2018-04-22T19:00:14.283Z,25.31
2018-04-22T19:02:46.504Z,25.39
2018-04-22T19:05:18.559Z,25.45
2018-04-22T19:07:49.101Z,25.50
2018-04-22T19:10:22.248Z,25.54
2018-04-22T19:12:55.657Z,25.60
2018-04-22T19:15:29.919Z,25.68
2018-04-22T19:18:01.725Z,25.77
2018-04-22T19:20:33.611Z,25.85
2018-04-22T19:23:04.424Z,25.93
2018-04-22T19:25:36.616Z,25.97
2018-04-22T19:28:08.587Z,26.06
2018-04-22T19:30:39.479Z,26.12
2018-04-22T19:33:12.278Z,26.20
2018-04-22T19:35:45.627Z,26.29
2018-04-22T19:38:16.539Z,26.35
2018-04-22T19:40:47.383Z,26.43
2018-04-22T19:43:19.597Z,26.51
2018-04-22T19:45:53.771Z,26.61
2018-04-22T19:48:27.754Z,26.70
2018-04-22T19:50:59.620Z,26.77
2018-04-22T19:53:31.537Z,26.84
2018-04-22T19:56:02.277Z,26.93
2018-04-22T19:58:34.555Z,27.01
2018-04-22T20:01:05.929Z,27.11
2018-04-22T20:03:37.624Z,27.21
2018-04-22T20:06:08.500Z,27.31
2018-04-22T20:08:39.253Z,27.37
2018-04-22T20:11:10.239Z,27.44
2018-04-22T20:13:42.525Z,27.51
2018-04-22T20:16:16.690Z,27.58
2018-04-22T20:18:48.584Z,27.70
2018-04-22T20:21:19.493Z,27.80
2018-04-22T20:23:50.376Z,27.91
2018-04-22T20:26:22.544Z,28.03
2018-04-22T20:28:54.534Z,28.11
2018-04-22T20:32:26.723Z,28.16
2018-04-22T20:36:28.596Z,28.39
2018-04-22T20:39:00.660Z,28.52
2018-04-22T20:41:34.948Z,28.61
2018-04-22T20:44:09.641Z,28.71
2018-04-22T20:46:41.499Z,28.79
2018-04-22T20:49:13.491Z,28.88
2018-04-22T20:51:45.272Z,28.98
2018-04-22T20:55:49.228Z,29.13
2018-04-22T20:58:22.242Z,29.19
2018-04-22T21:00:54.366Z,29.26
2018-04-22T21:03:26.291Z,29.34
2018-04-22T21:05:58.280Z,29.47
2018-04-22T21:08:30.511Z,29.60
2018-04-22T21:11:03.269Z,29.70
2018-04-22T21:13:35.277Z,29.81
2018-04-22T21:16:08.751Z,29.77
2018-04-22T21:18:42.616Z,29.60
2018-04-22T21:21:13.498Z,29.52
2018-04-22T21:23:45.278Z,29.48
2018-04-22T21:26:17.263Z,29.48
2018-04-22T21:28:51.855Z,29.50
2018-04-22T21:31:24.390Z,29.55
2018-04-22T21:33:56.558Z,29.73
2018-04-22T21:36:30.098Z,29.94
2018-04-22T21:39:02.263Z,30.12
2018-04-22T21:46:04.540Z,30.46
2018-04-22T21:48:36.771Z,30.57
2018-04-22T21:51:09.687Z,30.67
2018-04-22T21:53:41.596Z,30.79
2018-04-22T21:56:12.132Z,30.91
2018-04-22T21:58:44.538Z,31.02
2018-04-22T22:01:15.270Z,31.11
2018-04-22T22:03:46.372Z,31.20
2018-04-22T22:06:18.545Z,31.28
2018-04-22T22:08:50.546Z,31.40
2018-04-22T22:11:21.121Z,31.53
2018-04-22T22:13:53.277Z,31.63
2018-04-22T22:16:25.271Z,31.73
2018-04-22T22:18:57.504Z,31.85
2018-04-22T22:21:29.613Z,31.97
2018-04-22T22:24:00.508Z,32.09
2018-04-22T22:26:32.504Z,32.19
2018-04-22T22:29:04.302Z,32.28
2018-04-22T22:31:36.598Z,32.38
2018-04-22T22:34:07.386Z,32.49
2018-04-22T22:36:39.505Z,32.59
2018-04-22T22:41:28.602Z,32.80
2018-04-22T22:43:59.486Z,32.87
2018-04-22T22:46:33.635Z,32.96
2018-04-22T22:49:05.602Z,33.04
2018-04-22T22:51:37.095Z,33.15
2018-04-22T22:54:09.252Z,33.22
2018-04-22T22:56:41.246Z,33.36
2018-04-22T22:59:13.649Z,33.51
2018-04-22T23:03:46.652Z,33.64
2018-04-22T23:06:18.721Z,33.77
2018-04-22T23:08:52.250Z,33.91
2018-04-22T23:11:25.623Z,33.98
2018-04-22T23:13:57.698Z,34.10
2018-04-22T23:16:30.369Z,34.15
2018-04-22T23:19:02.266Z,34.20
2018-04-22T23:21:34.246Z,34.20
2018-04-22T23:24:06.780Z,34.33
2018-04-22T23:28:54.547Z,34.59
2018-04-22T23:31:25.085Z,34.71
2018-04-22T23:33:58.434Z,34.75
2018-04-22T23:36:30.280Z,34.85
2018-04-22T23:39:02.247Z,34.95
2018-04-22T23:41:34.471Z,34.96
2018-04-22T23:44:07.792Z,34.99
2018-04-22T23:46:41.375Z,35.00
2018-04-22T23:49:13.490Z,34.97
2018-04-22T23:51:46.574Z,34.89
2018-04-22T23:54:17.400Z,34.80
2018-04-22T23:56:48.400Z,34.74
2018-04-22T23:59:21.259Z,34.67
